sensor_id;sensor_type;location;lat;lon;timestamp;pressure;altitude;pressure_sealevel;temperature;humidity
5777;BME280;2914;42.668;23.346;2023-03-23T00:00:10;94474.92;;;9.60;99.71
5777;BME280;2914;42.668;23.346;2023-03-23T00:02:40;94469.59;;;9.56;99.85
5777;BME280;2914;42.668;23.346;2023-03-23T00:05:11;94469.88;;;9.53;99.69
5777;BME280;2914;42.668;23.346;2023-03-23T00:07:40;94470.69;;;9.43;99.95
5777;BME280;2914;42.668;23.346;2023-03-23T00:12:49;94465.05;;;9.23;100.00
5777;BME280;2914;42.668;23.346;2023-03-23T00:15:18;94465.05;;;9.23;100.00
5777;BME280;2914;42.668;23.346;2023-03-23T00:17:47;94464.36;;;9.11;100.00
5777;BME280;2914;42.668;23.346;2023-03-23T00:20:17;94464.14;;;9.08;100.00
5777;BME280;2914;42.668;23.346;2023-03-23T00:22:46;94476.14;;;9.01;100.00
5777;BME280;2914;42.668;23.346;2023-03-23T00:25:15;94471.75;;;9.11;100.00
5777;BME280;2914;42.668;23.346;2023-03-23T00:27:45;94471.75;;;9.11;100.00
5777;BME280;2914;42.668;23.346;2023-03-23T00:30:15;94468.45;;;9.19;100.00
5777;BME280;2914;42.668;23.346;2023-03-23T00:32:45;94481.06;;;9.25;100.00
5777;BME280;2914;42.668;23.346;2023-03-23T00:35:14;94484.13;;;9.30;100.00
5777;BME280;2914;42.668;23.346;2023-03-23T00:37:43;94484.94;;;8.80;100.00
5777;BME280;2914;42.668;23.346;2023-03-23T00:40:14;94488.17;;;8.94;100.00
5777;BME280;2914;42.668;23.346;2023-03-23T00:42:43;94488.17;;;8.94;100.00
5777;BME280;2914;42.668;23.346;2023-03-23T00:45:13;94488.09;;;8.90;100.00
5777;BME280;2914;42.668;23.346;2023-03-23T00:47:44;94487.72;;;8.94;100.00
5777;BME280;2914;42.668;23.346;2023-03-23T00:50:16;94485.02;;;9.00;100.00
5777;BME280;2914;42.668;23.346;2023-03-23T00:52:46;94489.22;;;8.97;100.00
5777;BME280;2914;42.668;23.346;2023-03-23T00:55:17;94489.22;;;8.97;100.00
5777;BME280;2914;42.668;23.346;2023-03-23T00:57:46;94485.60;;;8.88;100.00
5777;BME280;2914;42.668;23.346;2023-03-23T01:00:18;94501.67;;;8.70;100.00
5777;BME280;2914;42.668;23.346;2023-03-23T01:02:48;94501.67;;;8.70;100.00
5777;BME280;2914;42.668;23.346;2023-03-23T01:05:19;94506.52;;;8.74;100.00
5777;BME280;2914;42.668;23.346;2023-03-23T01:07:48;94506.52;;;8.74;100.00
5777;BME280;2914;42.668;23.346;2023-03-23T01:10:17;94505.30;;;8.78;100.00
5777;BME280;2914;42.668;23.346;2023-03-23T01:12:46;94496.83;;;8.75;100.00
5777;BME280;2914;42.668;23.346;2023-03-23T01:15:17;94502.02;;;8.86;100.00
5777;BME280;2914;42.668;23.346;2023-03-23T01:17:46;94498.84;;;8.92;100.00
5777;BME280;2914;42.668;23.346;2023-03-23T01:20:16;94494.70;;;8.99;100.00
5777;BME280;2914;42.668;23.346;2023-03-23T01:22:45;94494.70;;;8.99;100.00
5777;BME280;2914;42.668;23.346;2023-03-23T01:25:14;94486.50;;;8.93;100.00
5777;BME280;2914;42.668;23.346;2023-03-23T01:27:43;94492.15;;;9.04;100.00
5777;BME280;2914;42.668;23.346;2023-03-23T01:30:15;94492.15;;;9.04;100.00
5777;BME280;2914;42.668;23.346;2023-03-23T01:32:44;94491.41;;;9.07;100.00
5777;BME280;2914;42.668;23.346;2023-03-23T01:35:15;94493.95;;;9.03;100.00
5777;BME280;2914;42.668;23.346;2023-03-23T01:37:44;94491.55;;;9.06;100.00
5777;BME280;2914;42.668;23.346;2023-03-23T01:40:15;94480.38;;;9.23;100.00
5777;BME280;2914;42.668;23.346;2023-03-23T01:42:44;94480.38;;;9.23;100.00
5777;BME280;2914;42.668;23.346;2023-03-23T01:45:25;94468.53;;;9.23;100.00
5777;BME280;2914;42.668;23.346;2023-03-23T01:48:08;94468.53;;;9.23;100.00
5777;BME280;2914;42.668;23.346;2023-03-23T01:53:29;94469.94;;;9.37;100.00
5777;BME280;2914;42.668;23.346;2023-03-23T01:56:00;94468.05;;;9.33;100.00
5777;BME280;2914;42.668;23.346;2023-03-23T01:58:32;94465.20;;;9.41;100.00
5777;BME280;2914;42.668;23.346;2023-03-23T02:01:05;94475.06;;;9.39;100.00
5777;BME280;2914;42.668;23.346;2023-03-23T02:03:36;94471.54;;;9.44;100.00
5777;BME280;2914;42.668;23.346;2023-03-23T02:06:07;94468.98;;;9.48;100.00
5777;BME280;2914;42.668;23.346;2023-03-23T02:08:36;94466.13;;;9.36;100.00
5777;BME280;2914;42.668;23.346;2023-03-23T02:11:14;94462.91;;;9.22;100.00
5777;BME280;2914;42.668;23.346;2023-03-23T02:13:44;94468.03;;;9.24;100.00
5777;BME280;2914;42.668;23.346;2023-03-23T02:16:19;94467.60;;;9.19;100.00
5777;BME280;2914;42.668;23.346;2023-03-23T02:18:55;94471.31;;;9.31;100.00
5777;BME280;2914;42.668;23.346;2023-03-23T02:30:49;94467.63;;;9.38;99.93
5777;BME280;2914;42.668;23.346;2023-03-23T02:33:32;94466.53;;;9.50;99.24
5777;BME280;2914;42.668;23.346;2023-03-23T02:36:07;94462.65;;;9.55;98.69
5777;BME280;2914;42.668;23.346;2023-03-23T02:38:39;94473.89;;;9.57;98.67
5777;BME280;2914;42.668;23.346;2023-03-23T02:41:10;94469.58;;;9.46;99.28
5777;BME280;2914;42.668;23.346;2023-03-23T02:43:43;94471.58;;;9.38;99.68
5777;BME280;2914;42.668;23.346;2023-03-23T02:46:12;94474.84;;;9.46;99.36
5777;BME280;2914;42.668;23.346;2023-03-23T02:48:44;94476.88;;;9.48;99.38
5777;BME280;2914;42.668;23.346;2023-03-23T02:51:14;94471.11;;;9.48;98.69
5777;BME280;2914;42.668;23.346;2023-03-23T02:53:45;94485.53;;;9.54;98.44
5777;BME280;2914;42.668;23.346;2023-03-23T02:56:17;94487.59;;;9.41;99.82
5777;BME280;2914;42.668;23.346;2023-03-23T02:58:47;94493.99;;;9.48;99.91
5777;BME280;2914;42.668;23.346;2023-03-23T03:04:10;94494.59;;;9.36;100.00
5777;BME280;2914;42.668;23.346;2023-03-23T03:09:23;94510.41;;;9.11;100.00
5777;BME280;2914;42.668;23.346;2023-03-23T03:11:55;94509.74;;;9.03;100.00
5777;BME280;2914;42.668;23.346;2023-03-23T03:14:26;94514.52;;;9.04;100.00
5777;BME280;2914;42.668;23.346;2023-03-23T03:16:58;94514.52;;;9.04;100.00
5777;BME280;2914;42.668;23.346;2023-03-23T03:19:29;94522.81;;;8.99;100.00
5777;BME280;2914;42.668;23.346;2023-03-23T03:24:39;94513.69;;;8.20;100.00
5777;BME280;2914;42.668;23.346;2023-03-23T03:27:13;94513.69;;;8.20;100.00
5777;BME280;2914;42.668;23.346;2023-03-23T03:29:47;94516.11;;;8.54;100.00
5777;BME280;2914;42.668;23.346;2023-03-23T03:32:20;94516.11;;;8.54;100.00
5777;BME280;2914;42.668;23.346;2023-03-23T03:34:50;94521.13;;;8.73;100.00
5777;BME280;2914;42.668;23.346;2023-03-23T03:37:20;94521.13;;;8.73;100.00
5777;BME280;2914;42.668;23.346;2023-03-23T03:39:49;94521.13;;;8.73;100.00
5777;BME280;2914;42.668;23.346;2023-03-23T03:44:57;94525.03;;;8.63;100.00
5777;BME280;2914;42.668;23.346;2023-03-23T03:47:26;94526.56;;;8.65;100.00
5777;BME280;2914;42.668;23.346;2023-03-23T03:49:55;94525.25;;;8.65;100.00
5777;BME280;2914;42.668;23.346;2023-03-23T03:52:24;94515.69;;;8.64;100.00
5777;BME280;2914;42.668;23.346;2023-03-23T03:54:54;94519.81;;;8.73;100.00
5777;BME280;2914;42.668;23.346;2023-03-23T03:57:24;94519.81;;;8.73;100.00
5777;BME280;2914;42.668;23.346;2023-03-23T03:59:53;94518.17;;;8.81;99.35
5777;BME280;2914;42.668;23.346;2023-03-23T04:02:23;94514.64;;;8.77;99.11
5777;BME280;2914;42.668;23.346;2023-03-23T04:04:52;94514.64;;;8.77;99.11
5777;BME280;2914;42.668;23.346;2023-03-23T04:07:21;94515.59;;;8.76;98.89
5777;BME280;2914;42.668;23.346;2023-03-23T04:09:52;94518.58;;;8.77;98.78
5777;BME280;2914;42.668;23.346;2023-03-23T04:12:22;94510.88;;;8.70;100.00
5777;BME280;2914;42.668;23.346;2023-03-23T04:14:51;94510.88;;;8.70;100.00
5777;BME280;2914;42.668;23.346;2023-03-23T04:17:20;94506.22;;;8.68;100.00
5777;BME280;2914;42.668;23.346;2023-03-23T04:19:49;94506.22;;;8.68;100.00
5777;BME280;2914;42.668;23.346;2023-03-23T04:22:18;94507.26;;;8.71;100.00
5777;BME280;2914;42.668;23.346;2023-03-23T04:24:47;94512.30;;;8.68;100.00
5777;BME280;2914;42.668;23.346;2023-03-23T04:27:16;94509.75;;;8.72;99.86
5777;BME280;2914;42.668;23.346;2023-03-23T04:29:45;94512.61;;;8.75;99.37
5777;BME280;2914;42.668;23.346;2023-03-23T04:32:16;94523.27;;;8.73;99.14
5777;BME280;2914;42.668;23.346;2023-03-23T04:34:46;94523.27;;;8.73;99.14
5777;BME280;2914;42.668;23.346;2023-03-23T04:37:16;94515.86;;;8.73;99.77
5777;BME280;2914;42.668;23.346;2023-03-23T04:39:45;94521.13;;;8.73;99.61
5777;BME280;2914;42.668;23.346;2023-03-23T04:42:14;94514.92;;;8.68;99.05
5777;BME280;2914;42.668;23.346;2023-03-23T04:44:43;94514.92;;;8.68;99.05
5777;BME280;2914;42.668;23.346;2023-03-23T04:47:20;94520.41;;;8.71;99.09
5777;BME280;2914;42.668;23.346;2023-03-23T04:52:26;94523.98;;;8.75;99.47
5777;BME280;2914;42.668;23.346;2023-03-23T04:54:55;94522.91;;;8.72;99.38
5777;BME280;2914;42.668;23.346;2023-03-23T04:57:24;94537.77;;;8.83;99.36
5777;BME280;2914;42.668;23.346;2023-03-23T04:59:55;94539.08;;;8.83;99.21
5777;BME280;2914;42.668;23.346;2023-03-23T05:02:24;94539.08;;;8.83;99.21
5777;BME280;2914;42.668;23.346;2023-03-23T05:04:55;94536.53;;;8.87;99.25
5777;BME280;2914;42.668;23.346;2023-03-23T05:07:24;94537.85;;;8.87;99.09
5777;BME280;2914;42.668;23.346;2023-03-23T05:09:53;94537.94;;;8.91;99.05
5777;BME280;2914;42.668;23.346;2023-03-23T05:12:22;94539.25;;;8.91;98.68
5777;BME280;2914;42.668;23.346;2023-03-23T05:14:51;94536.86;;;8.78;99.26
5777;BME280;2914;42.668;23.346;2023-03-23T05:17:20;94551.72;;;8.89;99.56
5777;BME280;2914;42.668;23.346;2023-03-23T05:19:51;94547.41;;;8.88;99.26
5777;BME280;2914;42.668;23.346;2023-03-23T05:22:20;94549.53;;;8.94;99.19
5777;BME280;2914;42.668;23.346;2023-03-23T05:24:50;94545.09;;;8.95;99.18
5777;BME280;2914;42.668;23.346;2023-03-23T05:27:19;94561.00;;;9.09;98.85
5777;BME280;2914;42.668;23.346;2023-03-23T05:29:48;94561.00;;;9.09;98.85
5777;BME280;2914;42.668;23.346;2023-03-23T05:32:17;94557.50;;;9.14;99.09
5777;BME280;2914;42.668;23.346;2023-03-23T05:34:47;94561.48;;;8.77;100.00
5777;BME280;2914;42.668;23.346;2023-03-23T05:37:16;94563.69;;;8.88;100.00
5777;BME280;2914;42.668;23.346;2023-03-23T05:39:45;94563.69;;;8.88;100.00
5777;BME280;2914;42.668;23.346;2023-03-23T05:42:14;94566.41;;;8.92;100.00
5777;BME280;2914;42.668;23.346;2023-03-23T05:44:43;94564.86;;;9.05;100.00
5777;BME280;2914;42.668;23.346;2023-03-23T05:47:13;94566.70;;;9.14;100.00
5777;BME280;2914;42.668;23.346;2023-03-23T05:49:42;94566.70;;;9.14;100.00
5777;BME280;2914;42.668;23.346;2023-03-23T05:52:11;94577.23;;;9.14;100.00
5777;BME280;2914;42.668;23.346;2023-03-23T05:57:25;94575.07;;;9.29;100.00
5777;BME280;2914;42.668;23.346;2023-03-23T05:59:54;94576.69;;;9.36;100.00
5777;BME280;2914;42.668;23.346;2023-03-23T06:02:23;94579.20;;;9.47;100.00
5777;BME280;2914;42.668;23.346;2023-03-23T06:04:54;94577.61;;;9.50;100.00
5777;BME280;2914;42.668;23.346;2023-03-23T06:07:25;94580.48;;;9.62;100.00
5777;BME280;2914;42.668;23.346;2023-03-23T06:09:54;94585.31;;;9.82;100.00
5777;BME280;2914;42.668;23.346;2023-03-23T06:12:23;94585.61;;;9.99;100.00
5777;BME280;2914;42.668;23.346;2023-03-23T06:14:53;94588.59;;;10.10;99.59
5777;BME280;2914;42.668;23.346;2023-03-23T06:17:22;94585.67;;;10.13;98.53
5777;BME280;2914;42.668;23.346;2023-03-23T06:19:51;94588.17;;;10.14;97.34
5777;BME280;2914;42.668;23.346;2023-03-23T06:22:20;94587.06;;;10.07;98.06
5777;BME280;2914;42.668;23.346;2023-03-23T06:24:50;94591.02;;;10.07;99.06
5777;BME280;2914;42.668;23.346;2023-03-23T06:27:19;94593.52;;;10.09;98.48
5777;BME280;2914;42.668;23.346;2023-03-23T06:29:48;94593.30;;;10.06;97.03
5777;BME280;2914;42.668;23.346;2023-03-23T06:32:17;94595.94;;;9.71;97.44
5777;BME280;2914;42.668;23.346;2023-03-23T06:34:46;94590.09;;;9.93;98.15
5777;BME280;2914;42.668;23.346;2023-03-23T06:39:59;94591.16;;;10.25;99.62
5777;BME280;2914;42.668;23.346;2023-03-23T06:42:29;94593.23;;;10.41;98.23
5777;BME280;2914;42.668;23.346;2023-03-23T06:47:42;94592.84;;;11.27;100.00
5777;BME280;2914;42.668;23.346;2023-03-23T06:52:56;94606.75;;;11.98;99.33
5777;BME280;2914;42.668;23.346;2023-03-23T06:55:25;94612.53;;;11.88;91.02
5777;BME280;2914;42.668;23.346;2023-03-23T06:57:54;94617.80;;;12.12;89.79
5777;BME280;2914;42.668;23.346;2023-03-23T07:00:24;94617.17;;;12.00;87.07
5777;BME280;2914;42.668;23.346;2023-03-23T07:02:53;94615.66;;;11.42;87.27
5777;BME280;2914;42.668;23.346;2023-03-23T07:05:23;94608.23;;;11.17;99.40
5777;BME280;2914;42.668;23.346;2023-03-23T07:07:52;94612.64;;;11.03;93.12
5777;BME280;2914;42.668;23.346;2023-03-23T07:10:21;94614.70;;;11.47;92.59
5777;BME280;2914;42.668;23.346;2023-03-23T07:12:50;94621.45;;;11.31;89.27
5777;BME280;2914;42.668;23.346;2023-03-23T07:15:20;94616.86;;;11.10;90.79
5777;BME280;2914;42.668;23.346;2023-03-23T07:17:49;94617.64;;;11.44;89.58
5777;BME280;2914;42.668;23.346;2023-03-23T07:20:18;94620.13;;;11.73;88.75
5777;BME280;2914;42.668;23.346;2023-03-23T07:22:47;94621.72;;;12.08;88.34
5777;BME280;2914;42.668;23.346;2023-03-23T07:25:17;94617.59;;;11.67;86.15
5777;BME280;2914;42.668;23.346;2023-03-23T07:27:47;94614.09;;;11.49;87.18
5777;BME280;2914;42.668;23.346;2023-03-23T07:30:16;94615.55;;;11.61;88.04
5777;BME280;2914;42.668;23.346;2023-03-23T07:32:45;94619.16;;;11.74;86.54
5777;BME280;2914;42.668;23.346;2023-03-23T07:35:14;94626.53;;;11.94;87.78
5777;BME280;2914;42.668;23.346;2023-03-23T07:37:43;94625.66;;;12.39;85.59
5777;BME280;2914;42.668;23.346;2023-03-23T07:40:14;94623.36;;;12.41;83.59
5777;BME280;2914;42.668;23.346;2023-03-23T07:42:45;94625.27;;;12.16;84.77
5777;BME280;2914;42.668;23.346;2023-03-23T07:45:16;94621.72;;;12.44;85.45
5777;BME280;2914;42.668;23.346;2023-03-23T07:47:45;94624.86;;;12.61;85.00
5777;BME280;2914;42.668;23.346;2023-03-23T07:50:14;94634.84;;;12.94;83.66
5777;BME280;2914;42.668;23.346;2023-03-23T07:52:43;94626.97;;;13.32;81.15
5777;BME280;2914;42.668;23.346;2023-03-23T07:55:13;94629.20;;;13.71;80.58
5777;BME280;2914;42.668;23.346;2023-03-23T07:57:45;94630.97;;;14.01;76.35
5777;BME280;2914;42.668;23.346;2023-03-23T08:00:18;94633.18;;;14.31;77.37
5777;BME280;2914;42.668;23.346;2023-03-23T08:02:48;94640.91;;;14.07;72.91
5777;BME280;2914;42.668;23.346;2023-03-23T08:05:18;94641.52;;;13.85;75.34
5777;BME280;2914;42.668;23.346;2023-03-23T08:07:48;94635.47;;;14.17;73.40
5777;BME280;2914;42.668;23.346;2023-03-23T08:10:18;94638.35;;;14.53;71.13
5777;BME280;2914;42.668;23.346;2023-03-23T08:15:30;94641.83;;;14.57;71.24
5777;BME280;2914;42.668;23.346;2023-03-23T08:17:59;94636.99;;;14.32;72.19
5777;BME280;2914;42.668;23.346;2023-03-23T08:20:30;94638.17;;;14.50;72.30
5777;BME280;2914;42.668;23.346;2023-03-23T08:23:00;94633.73;;;14.59;72.46
5777;BME280;2914;42.668;23.346;2023-03-23T08:25:30;94638.39;;;14.69;71.00
5777;BME280;2914;42.668;23.346;2023-03-23T08:28:00;94638.36;;;14.61;68.77
5777;BME280;2914;42.668;23.346;2023-03-23T08:30:30;94637.70;;;14.59;68.95
5777;BME280;2914;42.668;23.346;2023-03-23T08:33:01;94636.63;;;14.23;70.79
5777;BME280;2914;42.668;23.346;2023-03-23T08:35:32;94629.99;;;14.19;70.51
5777;BME280;2914;42.668;23.346;2023-03-23T08:38:01;94634.30;;;14.12;70.94
5777;BME280;2914;42.668;23.346;2023-03-23T08:40:31;94632.30;;;14.01;68.67
5777;BME280;2914;42.668;23.346;2023-03-23T08:43:00;94632.95;;;14.03;69.18
5777;BME280;2914;42.668;23.346;2023-03-23T08:45:29;94635.78;;;14.10;67.12
5777;BME280;2914;42.668;23.346;2023-03-23T08:47:58;94626.75;;;14.58;86.93
5777;BME280;2914;42.668;23.346;2023-03-23T08:50:28;94619.45;;;14.97;94.54
5777;BME280;2914;42.668;23.346;2023-03-23T08:52:59;94630.41;;;15.15;72.40
5777;BME280;2914;42.668;23.346;2023-03-23T08:55:29;94628.42;;;15.21;64.19
5777;BME280;2914;42.668;23.346;2023-03-23T08:57:58;94635.06;;;15.17;59.87
5777;BME280;2914;42.668;23.346;2023-03-23T09:00:28;94635.23;;;14.86;57.13
5777;BME280;2914;42.668;23.346;2023-03-23T09:02:58;94627.70;;;14.32;60.63
5777;BME280;2914;42.668;23.346;2023-03-23T09:05:28;94623.39;;;14.31;57.48
5777;BME280;2914;42.668;23.346;2023-03-23T09:07:58;94634.15;;;14.21;57.85
5777;BME280;2914;42.668;23.346;2023-03-23T09:10:28;94634.75;;;14.66;61.86
5777;BME280;2914;42.668;23.346;2023-03-23T09:12:58;94641.39;;;14.83;57.92
5777;BME280;2914;42.668;23.346;2023-03-23T09:15:27;94644.39;;;14.80;57.36
5777;BME280;2914;42.668;23.346;2023-03-23T09:17:56;94639.72;;;14.69;56.03
5777;BME280;2914;42.668;23.346;2023-03-23T09:20:27;94627.22;;;14.53;57.11
5777;BME280;2914;42.668;23.346;2023-03-23T09:22:57;94627.22;;;14.49;57.83
5777;BME280;2914;42.668;23.346;2023-03-23T09:25:27;94631.20;;;14.49;58.45
5777;BME280;2914;42.668;23.346;2023-03-23T09:27:58;94627.50;;;14.13;59.03
5777;BME280;2914;42.668;23.346;2023-03-23T09:30:28;94625.84;;;14.20;58.93
5777;BME280;2914;42.668;23.346;2023-03-23T09:32:59;94631.02;;;14.22;59.06
5777;BME280;2914;42.668;23.346;2023-03-23T09:35:29;94623.55;;;14.25;59.00
5777;BME280;2914;42.668;23.346;2023-03-23T09:37:59;94617.80;;;13.87;60.97
5777;BME280;2914;42.668;23.346;2023-03-23T09:40:32;94619.32;;;13.94;61.16
5777;BME280;2914;42.668;23.346;2023-03-23T09:43:17;94614.23;;;14.09;60.99
5777;BME280;2914;42.668;23.346;2023-03-23T09:48:33;94609.83;;;13.40;62.72
5777;BME280;2914;42.668;23.346;2023-03-23T09:51:11;94618.51;;;13.24;63.82
5777;BME280;2914;42.668;23.346;2023-03-23T09:53:41;94616.00;;;13.19;64.07
5777;BME280;2914;42.668;23.346;2023-03-23T09:56:13;94611.98;;;13.37;62.64
5777;BME280;2914;42.668;23.346;2023-03-23T09:58:46;94603.91;;;13.47;60.95
5777;BME280;2914;42.668;23.346;2023-03-23T10:01:21;94605.56;;;13.44;61.70
5777;BME280;2914;42.668;23.346;2023-03-23T10:04:07;94597.96;;;13.53;62.72
5777;BME280;2914;42.668;23.346;2023-03-23T10:06:23;94607.77;;;13.56;60.03
5777;BME280;2914;42.668;23.346;2023-03-23T10:08:54;94603.46;;;13.60;59.46
5777;BME280;2914;42.668;23.346;2023-03-23T10:11:28;94596.31;;;13.48;60.75
5777;BME280;2914;42.668;23.346;2023-03-23T10:14:10;94601.64;;;13.56;61.08
5777;BME280;2914;42.668;23.346;2023-03-23T10:16:45;94602.85;;;13.70;60.75
5777;BME280;2914;42.668;23.346;2023-03-23T10:19:17;94595.58;;;13.80;60.14
5777;BME280;2914;42.668;23.346;2023-03-23T10:21:50;94598.26;;;13.88;59.48
5777;BME280;2914;42.668;23.346;2023-03-23T10:24:23;94596.52;;;13.67;60.57
5777;BME280;2914;42.668;23.346;2023-03-23T10:26:59;94591.25;;;13.75;61.25
5777;BME280;2914;42.668;23.346;2023-03-23T10:29:30;94595.06;;;13.68;61.56
5777;BME280;2914;42.668;23.346;2023-03-23T10:32:02;94594.23;;;13.72;60.35
5777;BME280;2914;42.668;23.346;2023-03-23T10:34:34;94587.30;;;13.83;59.83
5777;BME280;2914;42.668;23.346;2023-03-23T10:37:08;94595.13;;;13.89;60.27
5777;BME280;2914;42.668;23.346;2023-03-23T10:39:43;94585.53;;;13.96;59.01
5777;BME280;2914;42.668;23.346;2023-03-23T10:42:20;94585.86;;;13.93;59.88
5777;BME280;2914;42.668;23.346;2023-03-23T10:44:43;94588.03;;;14.02;59.10
5777;BME280;2914;42.668;23.346;2023-03-23T10:47:13;94591.48;;;13.98;58.84
5777;BME280;2914;42.668;23.346;2023-03-23T10:49:45;94587.36;;;14.08;58.99
5777;BME280;2914;42.668;23.346;2023-03-23T10:52:29;94584.91;;;14.23;58.28
5777;BME280;2914;42.668;23.346;2023-03-23T10:55:03;94581.95;;;14.30;57.26
5777;BME280;2914;42.668;23.346;2023-03-23T10:57:33;94584.59;;;14.22;58.21
5777;BME280;2914;42.668;23.346;2023-03-23T11:00:05;94581.27;;;14.28;58.50
5777;BME280;2914;42.668;23.346;2023-03-23T11:02:39;94579.94;;;14.24;58.56
5777;BME280;2914;42.668;23.346;2023-03-23T11:05:17;94589.08;;;13.66;59.67
5777;BME280;2914;42.668;23.346;2023-03-23T11:07:53;94579.03;;;13.35;60.73
5777;BME280;2914;42.668;23.346;2023-03-23T11:10:26;94574.66;;;13.30;60.45
5777;BME280;2914;42.668;23.346;2023-03-23T11:12:58;94581.10;;;13.28;60.09
5777;BME280;2914;42.668;23.346;2023-03-23T11:15:31;94572.63;;;13.54;60.21
5777;BME280;2914;42.668;23.346;2023-03-23T11:18:04;94576.34;;;13.70;60.36
5777;BME280;2914;42.668;23.346;2023-03-23T11:20:38;94568.43;;;13.82;59.58
5777;BME280;2914;42.668;23.346;2023-03-23T11:23:20;94562.98;;;13.92;59.01
5777;BME280;2914;42.668;23.346;2023-03-23T11:25:55;94557.18;;;13.97;58.48
5777;BME280;2914;42.668;23.346;2023-03-23T11:28:30;94557.55;;;14.14;58.05
5777;BME280;2914;42.668;23.346;2023-03-23T11:31:02;94553.07;;;14.27;58.08
5777;BME280;2914;42.668;23.346;2023-03-23T11:33:37;94549.27;;;14.34;57.77
5777;BME280;2914;42.668;23.346;2023-03-23T11:36:09;94543.59;;;14.08;57.65
5777;BME280;2914;42.668;23.346;2023-03-23T11:38:40;94551.22;;;13.90;57.34
5777;BME280;2914;42.668;23.346;2023-03-23T11:41:11;94544.20;;;13.73;57.82
5777;BME280;2914;42.668;23.346;2023-03-23T11:43:44;94542.52;;;13.64;58.19
5777;BME280;2914;42.668;23.346;2023-03-23T11:46:28;94534.80;;;13.87;58.63
5777;BME280;2914;42.668;23.346;2023-03-23T11:48:53;94533.67;;;14.06;58.49
5777;BME280;2914;42.668;23.346;2023-03-23T11:51:28;94533.69;;;14.27;57.95
5777;BME280;2914;42.668;23.346;2023-03-23T11:54:00;94528.37;;;14.35;57.37
5777;BME280;2914;42.668;23.346;2023-03-23T11:56:33;94525.55;;;14.49;56.56
5777;BME280;2914;42.668;23.346;2023-03-23T11:59:03;94527.58;;;14.63;56.17
5777;BME280;2914;42.668;23.346;2023-03-23T12:01:43;94525.91;;;14.70;56.13
5777;BME280;2914;42.668;23.346;2023-03-23T12:10:29;94519.05;;;14.92;55.28
5777;BME280;2914;42.668;23.346;2023-03-23T12:13:05;94520.40;;;14.84;55.59
5777;BME280;2914;42.668;23.346;2023-03-23T12:15:37;94508.14;;;14.67;56.26
5777;BME280;2914;42.668;23.346;2023-03-23T12:18:23;94516.10;;;14.71;56.00
5777;BME280;2914;42.668;23.346;2023-03-23T12:20:47;94516.78;;;14.69;56.44
5777;BME280;2914;42.668;23.346;2023-03-23T12:23:22;94518.28;;;14.71;55.71
5777;BME280;2914;42.668;23.346;2023-03-23T12:26:02;94511.28;;;14.62;56.57
5777;BME280;2914;42.668;23.346;2023-03-23T12:28:39;94513.10;;;14.45;55.95
5777;BME280;2914;42.668;23.346;2023-03-23T12:31:13;94511.64;;;14.26;56.36
5777;BME280;2914;42.668;23.346;2023-03-23T12:33:49;94512.63;;;14.21;56.52
5777;BME280;2914;42.668;23.346;2023-03-23T12:36:27;94512.13;;;14.34;56.47
5777;BME280;2914;42.668;23.346;2023-03-23T12:39:25;94508.81;;;14.52;55.79
5777;BME280;2914;42.668;23.346;2023-03-23T12:41:49;94514.59;;;14.60;55.88
5777;BME280;2914;42.668;23.346;2023-03-23T12:44:22;94507.15;;;14.72;55.89
5777;BME280;2914;42.668;23.346;2023-03-23T12:47:09;94503.67;;;14.75;55.93
5777;BME280;2914;42.668;23.346;2023-03-23T12:49:41;94499.97;;;14.85;56.94
5777;BME280;2914;42.668;23.346;2023-03-23T12:54:55;94495.11;;;15.09;55.18
5777;BME280;2914;42.668;23.346;2023-03-23T12:57:27;94491.94;;;15.09;55.47
5777;BME280;2914;42.668;23.346;2023-03-23T13:00:04;94488.96;;;15.13;56.05
5777;BME280;2914;42.668;23.346;2023-03-23T13:02:38;94494.06;;;15.22;55.78
5777;BME280;2914;42.668;23.346;2023-03-23T13:05:12;94492.23;;;15.23;54.31
5777;BME280;2914;42.668;23.346;2023-03-23T13:07:43;94486.72;;;15.29;54.05
5777;BME280;2914;42.668;23.346;2023-03-23T13:10:17;94489.00;;;15.36;53.87
5777;BME280;2914;42.668;23.346;2023-03-23T13:12:48;94488.54;;;15.32;54.42
5777;BME280;2914;42.668;23.346;2023-03-23T13:15:27;94487.05;;;14.82;55.24
5777;BME280;2914;42.668;23.346;2023-03-23T13:18:00;94485.91;;;14.51;56.31
5777;BME280;2914;42.668;23.346;2023-03-23T13:20:45;94487.07;;;14.49;56.67
5777;BME280;2914;42.668;23.346;2023-03-23T13:23:17;94475.94;;;14.53;56.68
5777;BME280;2914;42.668;23.346;2023-03-23T13:25:51;94472.30;;;14.67;56.50
5777;BME280;2914;42.668;23.346;2023-03-23T13:28:22;94469.16;;;14.75;56.05
5777;BME280;2914;42.668;23.346;2023-03-23T13:31:02;94470.48;;;14.71;55.60
5777;BME280;2914;42.668;23.346;2023-03-23T13:33:34;94476.44;;;14.78;55.84
5777;BME280;2914;42.668;23.346;2023-03-23T13:36:09;94472.75;;;14.91;55.81
5777;BME280;2914;42.668;23.346;2023-03-23T13:38:44;94470.41;;;15.00;55.70
5777;BME280;2914;42.668;23.346;2023-03-23T13:41:17;94466.39;;;15.08;55.95
5777;BME280;2914;42.668;23.346;2023-03-23T13:43:48;94465.75;;;14.98;55.70
5777;BME280;2914;42.668;23.346;2023-03-23T13:46:28;94468.11;;;14.85;55.95
5777;BME280;2914;42.668;23.346;2023-03-23T13:49:20;94459.99;;;14.78;56.23
5777;BME280;2914;42.668;23.346;2023-03-23T13:51:59;94462.76;;;14.97;55.86
5777;BME280;2914;42.668;23.346;2023-03-23T13:54:39;94461.75;;;15.02;55.95
5777;BME280;2914;42.668;23.346;2023-03-23T13:57:37;94458.11;;;15.03;55.74
5777;BME280;2914;42.668;23.346;2023-03-23T14:00:36;94457.58;;;15.08;55.89
5777;BME280;2914;42.668;23.346;2023-03-23T14:03:12;94458.91;;;15.08;55.95
5777;BME280;2914;42.668;23.346;2023-03-23T14:05:43;94461.75;;;15.02;55.96
5777;BME280;2914;42.668;23.346;2023-03-23T14:08:21;94459.73;;;15.13;55.45
5777;BME280;2914;42.668;23.346;2023-03-23T14:10:54;94454.41;;;15.17;55.38
5777;BME280;2914;42.668;23.346;2023-03-23T14:13:29;94449.72;;;15.23;55.03
5777;BME280;2914;42.668;23.346;2023-03-23T14:16:01;94448.34;;;14.91;55.56
5777;BME280;2914;42.668;23.346;2023-03-23T14:18:35;94442.43;;;14.77;56.03
5777;BME280;2914;42.668;23.346;2023-03-23T14:21:06;94435.91;;;14.92;55.56
5777;BME280;2914;42.668;23.346;2023-03-23T14:23:36;94439.84;;;15.04;55.20
5777;BME280;2914;42.668;23.346;2023-03-23T14:26:10;94437.86;;;14.98;55.06
5777;BME280;2914;42.668;23.346;2023-03-23T14:28:43;94429.70;;;15.04;55.37